Latest Weather Observations for Scherger

IDQ60801

Issued at 9:32 am EST Saturday 30 July 2016 (issued every 30 minutes, with the page automatically refreshed every 10 minutes)

About weather observations | Map of weather stations | Latest weather observations for QLD | Other Formats
Station Details ID: 027075 Name: SCHERGER RAAF Lat: -12.62 Lon: 142.09 Height: 39.34 m
Data from the previous 72 hours. | See also: Recent months at Scherger
Date/Time
EST
Temp
°C
App
Temp
°C
Dew
Point
°C
Rel
Hum
%
Delta-T
°C
Wind Press
QNH
hPa
Press
MSL
hPa
Rain since
9am
mm
Dir  Spd
km/h
Gust
km/h
Spd
kts
Gust
kts
30/09:00am 25.2 26.1 19.3 70 3.8 SSE 13 20 7 11 1013.2 1013.0 0.0
30/08:30am 23.6 24.7 18.9 75 3.0 S 11 17 6 9 1012.9 1012.7 0.0
30/08:00am 22.6 23.8 19.0 80 2.3 SSE 11 15 6 8 1012.7 1012.5 0.0
30/07:30am 21.5 22.9 18.7 84 1.8 SSE 9 15 5 8 1012.5 1012.3 0.0
30/07:00am 20.9 22.2 18.5 86 1.5 SSE 9 15 5 8 1012.3 1012.1 0.0
30/06:30am 20.8 22.4 18.2 85 1.6 S 7 11 4 6 1012.1 1011.9 0.0
30/06:00am 21.0 22.3 18.4 85 1.6 SSE 9 9 5 5 1011.8 1011.6 0.0
30/05:30am 21.1 22.7 18.3 84 1.7 S 7 9 4 5 1011.6 1011.4 0.0
30/05:00am 21.5 23.1 18.3 82 2.0 S 7 9 4 5 1011.5 1011.3 0.0
30/04:30am 21.8 23.4 18.2 80 2.2 SSE 7 9 4 5 1011.6 1011.4 0.0
30/04:00am 22.2 23.9 18.4 79 2.4 SSE 7 11 4 6 1011.5 1011.3 0.0
30/03:30am 22.7 24.4 18.5 77 2.6 SE 7 11 4 6 1011.6 1011.4 0.0
30/03:00am 22.8 24.4 18.3 76 2.8 SE 7 13 4 7 1011.6 1011.4 0.0
30/02:30am 23.1 24.8 18.4 75 3.0 SE 7 13 4 7 1011.7 1011.5 0.0
30/02:00am 23.3 25.0 18.4 74 3.1 SE 7 13 4 7 1012.0 1011.8 0.0
30/01:30am 23.6 24.8 18.3 72 3.3 SE 9 13 5 7 1012.3 1012.1 0.0
30/01:00am 23.9 24.8 18.3 71 3.5 SE 11 20 6 11 1012.6 1012.4 0.0
30/12:30am 24.0 25.2 18.2 70 3.7 SE 9 20 5 11 1012.7 1012.5 0.0
30/12:00am 24.2 25.5 18.4 70 3.7 SE 9 13 5 7 1013.1 1012.9 0.0
 
Date/Time
EST
Temp
°C
App
Temp
°C
Dew
Point
°C
Rel
Hum
%
Delta-T
°C
Wind Press
QNH
hPa
Press
MSL
hPa
Rain since
9am
mm
Dir  Spd
km/h
Gust
km/h
Spd
kts
Gust
kts
29/11:30pm 24.5 25.3 18.2 68 4.0 SE 11 20 6 11 1013.5 1013.3 0.0
29/11:00pm 24.7 25.1 18.2 67 4.1 SE 13 20 7 11 1013.7 1013.5 0.0
29/10:30pm 25.2 25.2 18.2 65 4.4 SE 15 24 8 13 1013.7 1013.5 0.0
29/10:00pm 25.3 25.7 18.2 64 4.5 SE 13 22 7 12 1013.6 1013.4 0.0
29/09:30pm 25.6 26.5 18.5 65 4.5 SE 11 20 6 11 1013.5 1013.3 0.0
29/09:00pm 25.8 26.4 18.5 64 4.6 SE 13 24 7 13 1013.7 1013.5 0.0
29/08:30pm 25.9 26.5 18.6 64 4.7 ESE 13 20 7 11 1013.3 1013.1 0.0
29/08:00pm 25.9 27.0 18.8 65 4.5 ESE 11 20 6 11 1012.8 1012.6 0.0
29/07:30pm 26.1 26.8 18.8 64 4.7 ESE 13 20 7 11 1012.4 1012.2 0.0
29/07:00pm 26.2 28.2 19.1 65 4.6 ESE 7 15 4 8 1011.8 1011.6 0.0
29/06:30pm 26.4 28.3 19.0 63 4.8 SE 7 13 4 7 1011.3 1011.1 0.0
29/06:00pm 26.7 27.8 18.8 62 5.1 SE 11 20 6 11 1011.1 1010.9 0.0
29/05:30pm 27.1 27.8 18.9 61 5.3 ESE 13 22 7 12 1011.0 1010.8 0.0
29/05:00pm 27.7 28.5 19.0 59 5.6 ESE 13 26 7 14 1010.6 1010.4 0.0
29/04:30pm 28.2 28.3 19.2 58 5.8 SE 17 24 9 13 1010.6 1010.4 0.0
29/04:00pm 28.1 27.9 19.3 58 5.7 SE 19 33 10 18 1010.6 1010.4 0.0
29/03:30pm 27.8 29.0 19.8 61 5.2 ESE 13 22 7 12 1010.6 1010.4 0.0
29/03:00pm 28.6 29.5 20.1 60 5.6 SE 15 26 8 14 1010.5 1010.3 0.0
29/02:30pm 27.6 27.7 19.1 59 5.5 SE 17 28 9 15 1010.8 1010.6 0.0
29/02:00pm 29.5 30.6 20.4 58 6.0 ESE 15 24 8 13 1010.8 1010.6 0.0
29/01:30pm 28.6 29.8 19.8 59 5.8 ESE 13 24 7 13 1011.4 1011.2 0.0
29/01:00pm 28.8 29.5 19.7 58 5.9 SE 15 26 8 14 1011.8 1011.6 0.0
29/12:30pm 27.9 29.2 19.4 60 5.5 SE 11 22 6 12 1012.2 1012.0 0.0
29/12:00pm 27.8 27.7 19.6 61 5.3 SE 19 30 10 16 1012.5 1012.3 0.0
29/11:30am 27.5 27.3 19.3 61 5.3 SE 19 30 10 16 1013.0 1012.8 0.0
29/11:00am 26.8 26.4 18.9 62 5.1 SE 19 30 10 16 1013.4 1013.2 0.0
29/10:30am 26.8 27.2 18.9 62 5.1 SE 15 30 8 16 1013.4 1013.2 0.0
29/10:00am 26.6 26.9 18.7 62 5.1 SE 15 24 8 13 1013.6 1013.4 0.0
29/09:30am 26.1 25.9 18.5 63 4.8 ESE 17 30 9 16 1013.7 1013.5 0.0
29/09:00am 25.0 25.0 18.0 65 4.4 SE 15 32 8 17 1013.6 1013.4 0.0
29/08:30am 23.7 23.7 17.2 67 4.0 SE 13 20 7 11 1013.7 1013.5 0.0
29/08:00am 22.8 23.6 17.3 71 3.4 SSE 9 15 5 8 1013.6 1013.4 0.0
29/07:30am 21.7 22.8 17.1 75 2.8 SSE 7 9 4 5 1013.3 1013.1 0.0
29/07:00am 21.6 22.6 16.8 74 2.9 SE 7 11 4 6 1013.1 1012.9 0.0
29/06:30am 21.9 22.5 16.8 73 3.1 SE 9 15 5 8 1012.8 1012.6 0.0
29/06:00am 22.1 22.8 17.0 73 3.1 SE 9 15 5 8 1012.6 1012.4 0.0
29/05:30am 22.1 22.4 17.0 73 3.1 SE 11 19 6 10 1012.3 1012.1 0.0
29/05:00am 22.2 23.0 17.3 74 3.0 SE 9 15 5 8 1012.3 1012.1 0.0
29/04:30am 22.2 23.0 17.3 74 3.0 SE 9 15 5 8 1012.4 1012.2 0.0
29/04:00am 22.4 23.3 17.5 74 3.0 SE 9 15 5 8 1012.3 1012.1 0.0
29/03:30am 22.6 23.9 17.5 73 3.2 SE 7 15 4 8 1012.3 1012.1 0.0
29/03:00am 22.9 23.8 17.6 72 3.3 SE 9 15 5 8 1012.4 1012.2 0.0
29/02:30am 23.1 23.4 17.8 72 3.3 ESE 13 20 7 11 1012.6 1012.4 0.0
29/02:00am 23.2 23.8 17.7 71 3.4 SE 11 17 6 9 1012.8 1012.6 0.0
29/01:30am 23.4 24.0 17.8 71 3.5 SE 11 20 6 11 1013.1 1012.9 0.0
29/01:00am 23.4 24.3 17.6 70 3.6 ESE 9 17 5 9 1013.4 1013.2 0.0
29/12:30am 23.6 24.5 17.6 69 3.7 ESE 9 19 5 10 1013.7 1013.5 0.0
29/12:00am 23.5 24.2 17.0 67 4.0 SE 9 15 5 8 1014.0 1013.8 0.0
 
Date/Time
EST
Temp
°C
App
Temp
°C
Dew
Point
°C
Rel
Hum
%
Delta-T
°C
Wind Press
QNH
hPa
Press
MSL
hPa
Rain since
9am
mm
Dir  Spd
km/h
Gust
km/h
Spd
kts
Gust
kts
28/11:30pm 23.7 24.4 17.0 66 4.1 SE 9 17 5 9 1014.1 1013.9 0.0
28/11:00pm 24.1 24.7 16.9 64 4.4 SE 9 17 5 9 1014.3 1014.1 0.0
28/10:30pm 24.2 24.7 16.5 62 4.7 ESE 9 15 5 8 1014.5 1014.3 0.0
28/10:00pm 24.5 24.1 16.2 60 5.1 SE 13 24 7 13 1014.5 1014.3 0.0
28/09:30pm 24.5 24.0 16.0 59 5.2 SE 13 24 7 13 1014.3 1014.1 0.0
28/09:00pm 25.0 24.1 15.9 57 5.5 SE 15 28 8 15 1014.4 1014.2 0.0
28/08:30pm 25.1 24.6 16.0 57 5.6 ESE 13 22 7 12 1014.0 1013.8 0.0
28/08:00pm 25.2 24.9 16.4 58 5.4 ESE 13 24 7 13 1013.6 1013.4 0.0
28/07:30pm 25.5 24.1 16.6 58 5.5 SE 19 33 10 18 1013.3 1013.1 0.0
28/07:00pm 25.4 25.4 17.1 60 5.2 ESE 13 26 7 14 1012.9 1012.7 0.0
28/06:30pm 25.7 24.9 17.1 59 5.4 ESE 17 26 9 14 1012.6 1012.4 0.0
28/06:00pm 25.9 25.4 17.8 61 5.1 ESE 17 28 9 15 1012.3 1012.1 0.0
28/05:30pm 26.3 27.2 19.2 65 4.6 ESE 13 24 7 13 1011.9 1011.7 0.0
28/05:00pm 26.4 25.6 19.3 65 4.6 ESE 22 35 12 19 1011.6 1011.4 0.0
28/04:30pm 26.8 26.6 19.4 64 4.8 ESE 19 35 10 19 1011.4 1011.2 0.0
28/04:00pm 26.2 26.4 20.1 69 4.0 ESE 19 30 10 16 1011.4 1011.2 0.0
28/03:30pm 25.5 25.9 19.9 71 3.6 ESE 17 33 9 18 1011.3 1011.1 0.0
28/03:00pm 26.9 27.3 19.8 65 4.6 SE 17 33 9 18 1011.2 1011.0 0.0
28/02:30pm 27.6 27.4 19.7 62 5.1 SE 20 33 11 18 1011.4 1011.2 0.0
28/02:00pm 27.3 28.0 20.4 66 4.5 ESE 17 30 9 16 1011.7 1011.5 0.0
28/01:30pm 27.6 27.5 19.9 63 5.0 ESE 20 35 11 19 1011.8 1011.6 0.0
28/01:00pm 26.6 27.2 21.1 72 3.6 ESE 19 41 10 22 1012.4 1012.2 0.0
28/12:30pm 27.4 27.2 19.7 63 5.0 ESE 20 39 11 21 1012.6 1012.4 0.0
28/12:00pm 28.2 29.4 20.0 61 5.4 ESE 13 26 7 14 1013.0 1012.8 0.0
28/11:30am 26.9 27.3 19.8 65 4.6 SE 17 33 9 18 1013.4 1013.2 0.0
28/11:00am 25.4 26.7 20.2 73 3.4 ESE 13 24 7 13 1013.8 1013.6 0.0
28/10:30am 26.6 26.5 19.5 65 4.6 SE 19 32 10 17 1014.1 1013.9 0.0
28/10:00am 26.7 27.1 19.8 66 4.5 ESE 17 32 9 17 1014.3 1014.1 0.0
28/09:30am 27.2 28.2 20.3 66 4.5 SE 15 26 8 14 1014.4 1014.2 0.0
28/09:00am 25.7 26.8 19.6 69 3.9 SE 13 22 7 12 1014.5 1014.3 0.0
28/08:30am 25.4 25.8 19.1 68 4.0 SE 15 24 8 13 1014.2 1014.0 0.0
28/08:00am 24.9 25.8 19.3 71 3.6 SE 13 19 7 10 1013.9 1013.7 0.0
28/07:30am 24.0 25.1 18.9 73 3.2 SE 11 17 6 9 1013.8 1013.6 0.0
28/07:00am 23.9 25.0 18.8 73 3.2 SE 11 19 6 10 1013.5 1013.3 0.0
28/06:30am 24.1 24.9 19.0 73 3.3 SSE 13 22 7 12 1013.3 1013.1 0.0
28/06:00am 24.1 25.4 19.4 75 3.0 SSE 11 19 6 10 1013.1 1012.9 0.0
28/05:30am 24.7 26.0 19.3 72 3.5 SE 11 20 6 11 1012.8 1012.6 0.0
28/05:00am 24.7 26.0 19.3 72 3.5 SE 11 20 6 11 1012.7 1012.5 0.0
28/04:30am 24.9 25.8 19.3 71 3.6 SE 13 24 7 13 1012.8 1012.6 0.0
28/04:00am 24.8 26.2 19.6 73 3.4 ESE 11 20 6 11 1012.7 1012.5 0.0
28/03:30am 24.8 26.2 19.6 73 3.4 SE 11 22 6 12 1012.8 1012.6 0.0
28/03:00am 24.8 26.5 19.4 72 3.5 SE 9 17 5 9 1012.9 1012.7 0.0
28/02:30am 25.0 26.3 19.4 71 3.6 SE 11 17 6 9 1013.1 1012.9 0.0
28/02:00am 25.3 25.5 19.4 70 3.8 SE 17 28 9 15 1013.3 1013.1 0.0
28/01:30am 25.3 26.8 19.7 71 3.6 SE 11 17 6 9 1013.7 1013.5 0.0
28/01:00am 25.5 26.2 19.6 70 3.8 SE 15 24 8 13 1013.8 1013.6 0.0
28/12:30am 25.7 26.4 19.6 69 3.9 SE 15 28 8 15 1013.9 1013.7 0.0
28/12:00am 25.8 26.9 19.7 69 3.9 SE 13 26 7 14 1014.0 1013.8 0.0
 
Date/Time
EST
Temp
°C
App
Temp
°C
Dew
Point
°C
Rel
Hum
%
Delta-T
°C
Wind Press
QNH
hPa
Press
MSL
hPa
Rain since
9am
mm
Dir  Spd
km/h
Gust
km/h
Spd
kts
Gust
kts
27/11:30pm 25.8 27.7 19.7 69 4.0 SE 9 15 5 8 1014.3 1014.1 0.0
27/11:00pm 26.0 27.8 19.6 68 4.1 SE 9 17 5 9 1014.5 1014.3 0.0
27/10:30pm 26.2 27.9 19.3 65 4.4 ESE 9 17 5 9 1014.6 1014.4 0.0
27/10:00pm 26.3 27.6 19.2 65 4.6 ESE 11 17 6 9 1014.3 1014.1 0.0
27/09:30pm 26.4 27.9 19.0 63 4.8 ESE 9 15 5 8 1014.1 1013.9 0.0
27/09:00pm 26.6 28.1 19.0 63 4.9 ESE 9 20 5 11 1013.9 1013.7 0.0
27/08:30pm 26.8 28.1 19.2 63 4.9 ESE 11 19 6 10 1013.7 1013.5 0.0
27/08:00pm 26.9 27.9 18.7 60 5.3 ESE 11 19 6 10 1013.3 1013.1 0.0
27/07:30pm 27.3 27.1 18.6 59 5.6 ESE 17 30 9 16 1012.9 1012.7 0.0
27/07:00pm 27.8 28.7 18.5 57 6.0 E 11 20 6 11 1012.5 1012.3 0.0
27/06:30pm 28.1 29.0 18.5 56 6.2 E 11 15 6 8 1012.0 1011.8 0.0
27/06:00pm 28.6 29.9 18.4 54 6.5 E 9 17 5 9 1011.6 1011.4 0.0
27/05:30pm 29.1 30.2 17.9 50 7.1 E 9 17 5 9 1011.1 1010.9 0.0
27/05:00pm 30.0 30.6 17.8 48 7.8 E 11 20 6 11 1010.7 1010.5 0.0
27/04:30pm 30.8 31.1 17.8 45 8.3 ESE 13 22 7 12 1010.6 1010.4 0.0
27/04:00pm 30.6 30.8 17.7 46 8.2 E 13 19 7 10 1010.6 1010.4 0.0
27/03:30pm 30.4 30.4 17.1 44 8.4 ESE 13 20 7 11 1010.5 1010.3 0.0
27/03:00pm 31.2 31.0 16.8 42 9.1 ESE 13 20 7 11 1010.6 1010.4 0.0
27/02:30pm 32.7 33.2 16.5 37 10.2 SE 9 17 5 9 1010.7 1010.5 0.0
27/02:00pm 32.3 31.7 15.7 36 10.4 SE 13 20 7 11 1011.1 1010.9 0.0
27/01:30pm 32.5 32.1 16.3 37 10.2 SE 13 20 7 11 1011.5 1011.3 0.0
27/01:00pm 31.1 29.7 15.5 39 9.7 SE 17 28 9 15 1011.9 1011.7 0.0
27/12:30pm 31.0 29.5 15.4 38 9.6 SSE 17 26 9 14 1012.3 1012.1 0.0
27/12:00pm 30.2 28.4 15.5 41 9.1 SSE 19 33 10 18 1012.8 1012.6 0.0
27/11:30am 29.4 29.5 16.6 46 8.0 ESE 11 17 6 9 1013.3 1013.1 0.0
27/11:00am 28.7 29.8 17.9 52 6.9 ESE 9 13 5 7 1013.8 1013.6 0.0
27/10:30am 27.4 27.6 17.6 55 6.2 SE 13 20 7 11 1014.1 1013.9 0.0
27/10:00am 26.9 27.5 17.7 57 5.8 SE 11 20 6 11 1014.1 1013.9 0.0

Other Formats:

Comma delimited format used in spreadsheet applications
http://www.bom.gov.au/fwo/IDQ60801/IDQ60801.94171.axf

JavaScript Object Notation format (JSON) in row-major order
http://www.bom.gov.au/fwo/IDQ60801/IDQ60801.94171.json